sensor_id;sensor_type;location;lat;lon;timestamp;P1;durP1;ratioP1;P2;durP2;ratioP2
44694;SDS011;32845;59.422;17.930;2024-02-26T00:03:27;19.42;;;7.65;;
44694;SDS011;32845;59.422;17.930;2024-02-26T00:07:57;23.10;;;7.95;;
44694;SDS011;32845;59.422;17.930;2024-02-26T00:12:28;16.88;;;7.97;;
44694;SDS011;32845;59.422;17.930;2024-02-26T00:16:59;16.10;;;6.40;;
44694;SDS011;32845;59.422;17.930;2024-02-26T00:21:30;18.67;;;7.63;;
44694;SDS011;32845;59.422;17.930;2024-02-26T00:26:00;21.27;;;7.57;;
44694;SDS011;32845;59.422;17.930;2024-02-26T00:30:31;17.63;;;7.32;;
44694;SDS011;32845;59.422;17.930;2024-02-26T00:35:02;19.35;;;7.68;;
44694;SDS011;32845;59.422;17.930;2024-02-26T00:39:32;18.02;;;7.78;;
44694;SDS011;32845;59.422;17.930;2024-02-26T00:44:03;19.52;;;8.18;;
44694;SDS011;32845;59.422;17.930;2024-02-26T00:48:34;18.08;;;8.15;;
44694;SDS011;32845;59.422;17.930;2024-02-26T00:53:04;20.30;;;8.30;;
44694;SDS011;32845;59.422;17.930;2024-02-26T00:57:35;15.88;;;8.32;;
44694;SDS011;32845;59.422;17.930;2024-02-26T01:02:05;23.35;;;9.00;;
44694;SDS011;32845;59.422;17.930;2024-02-26T01:06:36;23.52;;;8.52;;
44694;SDS011;32845;59.422;17.930;2024-02-26T01:11:07;18.77;;;8.77;;
44694;SDS011;32845;59.422;17.930;2024-02-26T01:15:38;18.73;;;8.80;;
44694;SDS011;32845;59.422;17.930;2024-02-26T01:20:08;22.00;;;8.85;;
44694;SDS011;32845;59.422;17.930;2024-02-26T01:24:40;25.50;;;9.80;;
44694;SDS011;32845;59.422;17.930;2024-02-26T01:29:10;23.83;;;9.40;;
44694;SDS011;32845;59.422;17.930;2024-02-26T01:33:41;20.33;;;8.82;;
44694;SDS011;32845;59.422;17.930;2024-02-26T01:38:12;23.00;;;9.27;;
44694;SDS011;32845;59.422;17.930;2024-02-26T01:42:42;17.80;;;8.52;;
44694;SDS011;32845;59.422;17.930;2024-02-26T01:47:13;21.73;;;8.70;;
44694;SDS011;32845;59.422;17.930;2024-02-26T01:51:44;20.50;;;9.35;;
44694;SDS011;32845;59.422;17.930;2024-02-26T01:56:15;22.30;;;9.40;;
44694;SDS011;32845;59.422;17.930;2024-02-26T02:00:48;21.80;;;9.02;;
44694;SDS011;32845;59.422;17.930;2024-02-26T02:05:19;16.35;;;8.50;;
44694;SDS011;32845;59.422;17.930;2024-02-26T02:09:51;21.02;;;9.45;;
44694;SDS011;32845;59.422;17.930;2024-02-26T02:14:23;15.15;;;7.70;;
44694;SDS011;32845;59.422;17.930;2024-02-26T02:18:54;18.30;;;7.60;;
44694;SDS011;32845;59.422;17.930;2024-02-26T02:23:25;20.27;;;8.68;;
44694;SDS011;32845;59.422;17.930;2024-02-26T02:27:56;18.90;;;8.25;;
44694;SDS011;32845;59.422;17.930;2024-02-26T02:32:27;18.38;;;8.43;;
44694;SDS011;32845;59.422;17.930;2024-02-26T02:36:59;20.70;;;8.05;;
44694;SDS011;32845;59.422;17.930;2024-02-26T02:41:29;17.63;;;7.57;;
44694;SDS011;32845;59.422;17.930;2024-02-26T02:46:00;18.33;;;8.32;;
44694;SDS011;32845;59.422;17.930;2024-02-26T02:50:31;16.67;;;7.65;;
44694;SDS011;32845;59.422;17.930;2024-02-26T02:55:01;20.05;;;7.80;;
44694;SDS011;32845;59.422;17.930;2024-02-26T02:59:32;17.08;;;8.55;;
44694;SDS011;32845;59.422;17.930;2024-02-26T03:04:03;14.77;;;8.18;;
44694;SDS011;32845;59.422;17.930;2024-02-26T03:08:34;15.90;;;8.23;;
44694;SDS011;32845;59.422;17.930;2024-02-26T03:13:07;16.00;;;6.75;;
44694;SDS011;32845;59.422;17.930;2024-02-26T03:17:38;20.85;;;7.75;;
44694;SDS011;32845;59.422;17.930;2024-02-26T03:22:09;20.77;;;7.78;;
44694;SDS011;32845;59.422;17.930;2024-02-26T03:26:39;16.27;;;6.95;;
44694;SDS011;32845;59.422;17.930;2024-02-26T03:31:10;16.60;;;7.50;;
44694;SDS011;32845;59.422;17.930;2024-02-26T03:35:40;15.35;;;6.95;;
44694;SDS011;32845;59.422;17.930;2024-02-26T03:40:11;12.85;;;6.38;;
44694;SDS011;32845;59.422;17.930;2024-02-26T03:44:44;13.60;;;6.05;;
44694;SDS011;32845;59.422;17.930;2024-02-26T03:49:15;8.70;;;4.57;;
44694;SDS011;32845;59.422;17.930;2024-02-26T03:53:46;13.70;;;4.82;;
44694;SDS011;32845;59.422;17.930;2024-02-26T03:58:17;11.43;;;5.30;;
44694;SDS011;32845;59.422;17.930;2024-02-26T04:02:47;11.88;;;5.07;;
44694;SDS011;32845;59.422;17.930;2024-02-26T04:07:18;21.15;;;6.47;;
44694;SDS011;32845;59.422;17.930;2024-02-26T04:11:49;16.25;;;5.65;;
44694;SDS011;32845;59.422;17.930;2024-02-26T04:16:19;20.60;;;5.85;;
44694;SDS011;32845;59.422;17.930;2024-02-26T04:20:50;10.70;;;5.00;;
44694;SDS011;32845;59.422;17.930;2024-02-26T04:25:21;9.98;;;5.07;;
44694;SDS011;32845;59.422;17.930;2024-02-26T04:29:52;14.10;;;6.20;;
44694;SDS011;32845;59.422;17.930;2024-02-26T04:34:22;20.50;;;5.72;;
44694;SDS011;32845;59.422;17.930;2024-02-26T04:38:53;13.68;;;5.18;;
44694;SDS011;32845;59.422;17.930;2024-02-26T04:43:26;15.88;;;5.32;;
44694;SDS011;32845;59.422;17.930;2024-02-26T04:47:57;12.65;;;5.00;;
44694;SDS011;32845;59.422;17.930;2024-02-26T04:52:27;15.52;;;6.25;;
44694;SDS011;32845;59.422;17.930;2024-02-26T04:56:58;10.60;;;5.60;;
44694;SDS011;32845;59.422;17.930;2024-02-26T05:01:28;16.15;;;5.53;;
44694;SDS011;32845;59.422;17.930;2024-02-26T05:06:00;15.13;;;5.57;;
44694;SDS011;32845;59.422;17.930;2024-02-26T05:10:30;15.80;;;6.10;;
44694;SDS011;32845;59.422;17.930;2024-02-26T05:15:01;14.07;;;5.97;;
44694;SDS011;32845;59.422;17.930;2024-02-26T05:19:33;13.55;;;6.68;;
44694;SDS011;32845;59.422;17.930;2024-02-26T05:24:03;16.40;;;5.78;;
44694;SDS011;32845;59.422;17.930;2024-02-26T05:28:34;18.02;;;5.72;;
44694;SDS011;32845;59.422;17.930;2024-02-26T05:33:06;15.73;;;5.13;;
44694;SDS011;32845;59.422;17.930;2024-02-26T05:37:36;14.05;;;6.05;;
44694;SDS011;32845;59.422;17.930;2024-02-26T05:42:07;12.80;;;5.50;;
44694;SDS011;32845;59.422;17.930;2024-02-26T05:46:39;12.75;;;6.10;;
44694;SDS011;32845;59.422;17.930;2024-02-26T05:51:09;11.65;;;5.72;;
44694;SDS011;32845;59.422;17.930;2024-02-26T05:55:40;13.95;;;6.13;;
44694;SDS011;32845;59.422;17.930;2024-02-26T06:00:10;13.02;;;5.90;;
44694;SDS011;32845;59.422;17.930;2024-02-26T06:04:42;10.15;;;5.53;;
44694;SDS011;32845;59.422;17.930;2024-02-26T06:09:13;10.80;;;5.93;;
44694;SDS011;32845;59.422;17.930;2024-02-26T06:13:43;9.60;;;6.00;;
44694;SDS011;32845;59.422;17.930;2024-02-26T06:18:14;14.30;;;5.75;;
44694;SDS011;32845;59.422;17.930;2024-02-26T06:22:44;11.63;;;5.90;;
44694;SDS011;32845;59.422;17.930;2024-02-26T06:27:15;12.40;;;5.82;;
44694;SDS011;32845;59.422;17.930;2024-02-26T06:31:46;12.23;;;6.22;;
44694;SDS011;32845;59.422;17.930;2024-02-26T06:36:18;12.43;;;5.53;;
44694;SDS011;32845;59.422;17.930;2024-02-26T06:40:49;12.55;;;6.10;;
44694;SDS011;32845;59.422;17.930;2024-02-26T06:45:19;14.40;;;6.28;;
44694;SDS011;32845;59.422;17.930;2024-02-26T06:49:50;13.45;;;6.88;;
44694;SDS011;32845;59.422;17.930;2024-02-26T06:54:21;12.43;;;6.07;;
44694;SDS011;32845;59.422;17.930;2024-02-26T06:58:51;14.63;;;5.95;;
44694;SDS011;32845;59.422;17.930;2024-02-26T07:03:22;16.90;;;6.70;;
44694;SDS011;32845;59.422;17.930;2024-02-26T07:07:53;14.52;;;6.75;;
44694;SDS011;32845;59.422;17.930;2024-02-26T07:12:23;11.73;;;6.10;;
44694;SDS011;32845;59.422;17.930;2024-02-26T07:16:54;13.43;;;6.88;;
44694;SDS011;32845;59.422;17.930;2024-02-26T07:21:25;16.02;;;6.55;;
44694;SDS011;32845;59.422;17.930;2024-02-26T07:25:55;13.70;;;6.82;;
44694;SDS011;32845;59.422;17.930;2024-02-26T07:30:26;17.50;;;7.30;;
44694;SDS011;32845;59.422;17.930;2024-02-26T07:34:57;15.13;;;7.22;;
44694;SDS011;32845;59.422;17.930;2024-02-26T07:39:27;17.75;;;6.93;;
44694;SDS011;32845;59.422;17.930;2024-02-26T07:43:58;13.82;;;7.03;;
44694;SDS011;32845;59.422;17.930;2024-02-26T07:48:29;16.83;;;7.45;;
44694;SDS011;32845;59.422;17.930;2024-02-26T07:52:59;12.13;;;6.68;;
44694;SDS011;32845;59.422;17.930;2024-02-26T07:57:31;16.00;;;6.75;;
44694;SDS011;32845;59.422;17.930;2024-02-26T08:02:04;19.20;;;7.60;;
44694;SDS011;32845;59.422;17.930;2024-02-26T08:06:35;17.85;;;8.13;;
44694;SDS011;32845;59.422;17.930;2024-02-26T08:11:06;16.02;;;7.63;;
44694;SDS011;32845;59.422;17.930;2024-02-26T08:15:37;19.25;;;8.00;;
44694;SDS011;32845;59.422;17.930;2024-02-26T08:20:08;14.80;;;7.75;;
44694;SDS011;32845;59.422;17.930;2024-02-26T08:24:39;13.00;;;7.63;;
44694;SDS011;32845;59.422;17.930;2024-02-26T08:29:09;17.50;;;8.15;;
44694;SDS011;32845;59.422;17.930;2024-02-26T08:33:40;15.88;;;8.07;;
44694;SDS011;32845;59.422;17.930;2024-02-26T08:38:11;23.08;;;9.57;;
44694;SDS011;32845;59.422;17.930;2024-02-26T08:42:41;15.95;;;8.82;;
44694;SDS011;32845;59.422;17.930;2024-02-26T08:47:13;16.45;;;9.13;;
44694;SDS011;32845;59.422;17.930;2024-02-26T08:51:43;15.80;;;9.07;;
44694;SDS011;32845;59.422;17.930;2024-02-26T08:56:14;20.55;;;9.13;;
44694;SDS011;32845;59.422;17.930;2024-02-26T09:00:47;17.73;;;9.45;;
44694;SDS011;32845;59.422;17.930;2024-02-26T09:05:17;18.83;;;9.90;;
44694;SDS011;32845;59.422;17.930;2024-02-26T09:09:48;14.07;;;8.30;;
44694;SDS011;32845;59.422;17.930;2024-02-26T09:14:19;17.88;;;8.18;;
44694;SDS011;32845;59.422;17.930;2024-02-26T09:18:49;14.95;;;8.05;;
44694;SDS011;32845;59.422;17.930;2024-02-26T09:23:20;13.43;;;7.82;;
44694;SDS011;32845;59.422;17.930;2024-02-26T09:27:50;16.05;;;9.38;;
44694;SDS011;32845;59.422;17.930;2024-02-26T09:32:22;16.35;;;9.48;;
44694;SDS011;32845;59.422;17.930;2024-02-26T09:36:54;19.17;;;10.13;;
44694;SDS011;32845;59.422;17.930;2024-02-26T09:41:27;18.02;;;10.13;;
44694;SDS011;32845;59.422;17.930;2024-02-26T09:45:59;16.23;;;7.68;;
44694;SDS011;32845;59.422;17.930;2024-02-26T09:50:30;10.77;;;6.75;;
44694;SDS011;32845;59.422;17.930;2024-02-26T09:55:00;10.90;;;6.90;;
44694;SDS011;32845;59.422;17.930;2024-02-26T09:59:36;11.35;;;6.65;;
44694;SDS011;32845;59.422;17.930;2024-02-26T10:04:10;11.35;;;6.60;;
44694;SDS011;32845;59.422;17.930;2024-02-26T10:08:41;10.15;;;6.32;;
44694;SDS011;32845;59.422;17.930;2024-02-26T10:13:13;11.48;;;6.72;;
44694;SDS011;32845;59.422;17.930;2024-02-26T10:17:43;12.27;;;7.03;;
44694;SDS011;32845;59.422;17.930;2024-02-26T10:22:14;10.73;;;6.78;;
44694;SDS011;32845;59.422;17.930;2024-02-26T10:26:47;12.48;;;7.60;;
44694;SDS011;32845;59.422;17.930;2024-02-26T10:31:19;13.95;;;7.78;;
44694;SDS011;32845;59.422;17.930;2024-02-26T10:35:49;13.75;;;7.63;;
44694;SDS011;32845;59.422;17.930;2024-02-26T10:40:20;13.32;;;7.68;;
44694;SDS011;32845;59.422;17.930;2024-02-26T10:44:51;11.82;;;7.15;;
44694;SDS011;32845;59.422;17.930;2024-02-26T10:49:21;13.48;;;8.55;;
44694;SDS011;32845;59.422;17.930;2024-02-26T10:53:57;18.88;;;8.30;;
44694;SDS011;32845;59.422;17.930;2024-02-26T10:58:31;18.02;;;8.73;;
44694;SDS011;32845;59.422;17.930;2024-02-26T11:03:03;12.80;;;7.15;;
44694;SDS011;32845;59.422;17.930;2024-02-26T11:07:35;12.13;;;7.00;;
44694;SDS011;32845;59.422;17.930;2024-02-26T11:12:08;13.25;;;7.38;;
44694;SDS011;32845;59.422;17.930;2024-02-26T11:16:42;13.55;;;6.93;;
44694;SDS011;32845;59.422;17.930;2024-02-26T11:21:15;15.63;;;7.32;;
44694;SDS011;32845;59.422;17.930;2024-02-26T11:25:46;10.93;;;6.85;;
44694;SDS011;32845;59.422;17.930;2024-02-26T11:30:17;12.10;;;7.03;;
44694;SDS011;32845;59.422;17.930;2024-02-26T11:34:49;19.65;;;7.38;;
44694;SDS011;32845;59.422;17.930;2024-02-26T11:39:20;11.63;;;6.88;;
44694;SDS011;32845;59.422;17.930;2024-02-26T11:43:52;8.65;;;6.00;;
44694;SDS011;32845;59.422;17.930;2024-02-26T11:48:28;11.73;;;6.25;;
44694;SDS011;32845;59.422;17.930;2024-02-26T11:58:01;11.25;;;6.30;;
44694;SDS011;32845;59.422;17.930;2024-02-26T12:07:21;9.38;;;6.07;;
44694;SDS011;32845;59.422;17.930;2024-02-26T12:11:52;9.05;;;5.82;;
44694;SDS011;32845;59.422;17.930;2024-02-26T12:16:34;10.57;;;6.20;;
44694;SDS011;32845;59.422;17.930;2024-02-26T12:21:07;10.23;;;6.53;;
44694;SDS011;32845;59.422;17.930;2024-02-26T12:25:43;12.90;;;6.22;;
44694;SDS011;32845;59.422;17.930;2024-02-26T12:30:14;11.73;;;6.03;;
44694;SDS011;32845;59.422;17.930;2024-02-26T12:34:44;13.82;;;6.45;;
44694;SDS011;32845;59.422;17.930;2024-02-26T12:39:15;10.35;;;6.22;;
44694;SDS011;32845;59.422;17.930;2024-02-26T12:43:46;13.73;;;6.53;;
44694;SDS011;32845;59.422;17.930;2024-02-26T12:48:16;12.43;;;6.60;;
44694;SDS011;32845;59.422;17.930;2024-02-26T12:52:47;9.93;;;6.35;;
44694;SDS011;32845;59.422;17.930;2024-02-26T12:57:18;9.90;;;6.00;;
44694;SDS011;32845;59.422;17.930;2024-02-26T13:01:49;9.20;;;5.63;;
44694;SDS011;32845;59.422;17.930;2024-02-26T13:06:20;10.98;;;5.97;;
44694;SDS011;32845;59.422;17.930;2024-02-26T13:10:52;10.02;;;6.10;;
44694;SDS011;32845;59.422;17.930;2024-02-26T13:15:23;8.48;;;5.35;;
44694;SDS011;32845;59.422;17.930;2024-02-26T13:19:54;8.88;;;5.25;;
44694;SDS011;32845;59.422;17.930;2024-02-26T13:24:25;11.50;;;4.80;;
44694;SDS011;32845;59.422;17.930;2024-02-26T13:28:59;12.65;;;5.68;;
44694;SDS011;32845;59.422;17.930;2024-02-26T13:33:31;9.23;;;5.50;;
44694;SDS011;32845;59.422;17.930;2024-02-26T13:38:02;8.60;;;4.50;;
44694;SDS011;32845;59.422;17.930;2024-02-26T13:42:33;9.75;;;5.05;;
44694;SDS011;32845;59.422;17.930;2024-02-26T13:47:03;8.68;;;5.03;;
44694;SDS011;32845;59.422;17.930;2024-02-26T13:51:34;6.95;;;4.53;;
44694;SDS011;32845;59.422;17.930;2024-02-26T13:56:05;12.18;;;5.18;;
44694;SDS011;32845;59.422;17.930;2024-02-26T14:00:37;8.43;;;4.97;;
44694;SDS011;32845;59.422;17.930;2024-02-26T14:05:12;7.57;;;5.00;;
44694;SDS011;32845;59.422;17.930;2024-02-26T14:09:43;8.65;;;5.00;;
44694;SDS011;32845;59.422;17.930;2024-02-26T14:14:15;10.23;;;5.35;;
44694;SDS011;32845;59.422;17.930;2024-02-26T14:18:46;8.20;;;5.63;;
44694;SDS011;32845;59.422;17.930;2024-02-26T14:23:16;9.82;;;5.57;;
44694;SDS011;32845;59.422;17.930;2024-02-26T14:27:47;11.50;;;6.30;;
44694;SDS011;32845;59.422;17.930;2024-02-26T14:32:18;10.90;;;6.38;;
44694;SDS011;32845;59.422;17.930;2024-02-26T14:36:48;10.85;;;6.47;;
44694;SDS011;32845;59.422;17.930;2024-02-26T14:41:19;13.35;;;7.07;;
44694;SDS011;32845;59.422;17.930;2024-02-26T14:45:49;9.98;;;6.32;;
44694;SDS011;32845;59.422;17.930;2024-02-26T14:50:20;10.18;;;6.20;;
44694;SDS011;32845;59.422;17.930;2024-02-26T14:54:56;14.07;;;7.13;;
44694;SDS011;32845;59.422;17.930;2024-02-26T14:59:27;12.43;;;7.30;;
44694;SDS011;32845;59.422;17.930;2024-02-26T15:03:58;14.75;;;8.05;;
44694;SDS011;32845;59.422;17.930;2024-02-26T15:08:29;16.90;;;8.25;;
44694;SDS011;32845;59.422;17.930;2024-02-26T15:12:59;18.27;;;8.20;;
44694;SDS011;32845;59.422;17.930;2024-02-26T15:17:30;20.05;;;10.05;;
44694;SDS011;32845;59.422;17.930;2024-02-26T15:22:04;20.60;;;10.60;;
44694;SDS011;32845;59.422;17.930;2024-02-26T15:26:34;18.95;;;9.90;;
44694;SDS011;32845;59.422;17.930;2024-02-26T15:31:05;23.13;;;10.63;;
44694;SDS011;32845;59.422;17.930;2024-02-26T15:35:36;22.00;;;11.13;;
44694;SDS011;32845;59.422;17.930;2024-02-26T15:40:07;23.63;;;10.68;;
44694;SDS011;32845;59.422;17.930;2024-02-26T15:44:38;23.58;;;11.05;;
44694;SDS011;32845;59.422;17.930;2024-02-26T15:49:09;22.73;;;11.73;;
44694;SDS011;32845;59.422;17.930;2024-02-26T15:53:40;28.67;;;11.10;;
44694;SDS011;32845;59.422;17.930;2024-02-26T15:58:10;25.73;;;9.80;;
44694;SDS011;32845;59.422;17.930;2024-02-26T16:02:41;31.73;;;9.43;;
44694;SDS011;32845;59.422;17.930;2024-02-26T16:07:15;30.02;;;9.30;;
44694;SDS011;32845;59.422;17.930;2024-02-26T16:11:58;21.10;;;9.18;;
44694;SDS011;32845;59.422;17.930;2024-02-26T16:16:32;21.98;;;10.82;;
44694;SDS011;32845;59.422;17.930;2024-02-26T16:21:05;24.02;;;10.30;;
44694;SDS011;32845;59.422;17.930;2024-02-26T16:25:35;25.10;;;10.55;;
44694;SDS011;32845;59.422;17.930;2024-02-26T16:30:07;17.63;;;10.05;;
44694;SDS011;32845;59.422;17.930;2024-02-26T16:34:39;24.85;;;9.98;;
44694;SDS011;32845;59.422;17.930;2024-02-26T16:39:09;24.23;;;10.45;;
44694;SDS011;32845;59.422;17.930;2024-02-26T16:43:40;19.02;;;9.55;;
44694;SDS011;32845;59.422;17.930;2024-02-26T16:48:10;27.50;;;10.75;;
44694;SDS011;32845;59.422;17.930;2024-02-26T16:52:41;22.20;;;10.25;;
44694;SDS011;32845;59.422;17.930;2024-02-26T16:57:12;23.13;;;10.85;;
44694;SDS011;32845;59.422;17.930;2024-02-26T17:01:46;33.67;;;10.43;;
44694;SDS011;32845;59.422;17.930;2024-02-26T17:06:17;24.40;;;10.88;;
44694;SDS011;32845;59.422;17.930;2024-02-26T17:10:53;29.80;;;10.43;;
44694;SDS011;32845;59.422;17.930;2024-02-26T17:15:23;27.75;;;11.32;;
44694;SDS011;32845;59.422;17.930;2024-02-26T17:19:54;30.23;;;11.40;;
44694;SDS011;32845;59.422;17.930;2024-02-26T17:24:25;22.80;;;10.50;;
44694;SDS011;32845;59.422;17.930;2024-02-26T17:28:55;23.02;;;10.35;;
44694;SDS011;32845;59.422;17.930;2024-02-26T17:33:29;31.05;;;11.00;;
44694;SDS011;32845;59.422;17.930;2024-02-26T17:38:00;19.15;;;9.43;;
44694;SDS011;32845;59.422;17.930;2024-02-26T17:42:31;18.70;;;8.85;;
44694;SDS011;32845;59.422;17.930;2024-02-26T17:47:01;22.83;;;9.55;;
44694;SDS011;32845;59.422;17.930;2024-02-26T17:51:32;26.00;;;11.55;;
44694;SDS011;32845;59.422;17.930;2024-02-26T17:56:03;25.73;;;11.02;;
44694;SDS011;32845;59.422;17.930;2024-02-26T18:00:36;26.40;;;10.93;;
44694;SDS011;32845;59.422;17.930;2024-02-26T18:05:07;29.83;;;11.52;;
44694;SDS011;32845;59.422;17.930;2024-02-26T18:09:38;26.77;;;12.38;;
44694;SDS011;32845;59.422;17.930;2024-02-26T18:14:09;31.42;;;13.02;;
44694;SDS011;32845;59.422;17.930;2024-02-26T18:18:39;29.00;;;12.23;;
44694;SDS011;32845;59.422;17.930;2024-02-26T18:23:10;33.65;;;12.70;;
44694;SDS011;32845;59.422;17.930;2024-02-26T18:27:40;25.25;;;11.15;;
44694;SDS011;32845;59.422;17.930;2024-02-26T18:32:11;27.55;;;11.32;;
44694;SDS011;32845;59.422;17.930;2024-02-26T18:36:42;35.88;;;12.55;;
44694;SDS011;32845;59.422;17.930;2024-02-26T18:41:19;30.60;;;11.85;;
44694;SDS011;32845;59.422;17.930;2024-02-26T18:45:51;37.22;;;12.15;;
44694;SDS011;32845;59.422;17.930;2024-02-26T18:50:22;34.58;;;11.98;;
44694;SDS011;32845;59.422;17.930;2024-02-26T18:54:52;34.70;;;12.48;;
44694;SDS011;32845;59.422;17.930;2024-02-26T18:59:23;33.83;;;11.80;;
44694;SDS011;32845;59.422;17.930;2024-02-26T19:03:53;35.33;;;11.57;;
44694;SDS011;32845;59.422;17.930;2024-02-26T19:08:25;30.77;;;11.82;;
44694;SDS011;32845;59.422;17.930;2024-02-26T19:12:56;35.10;;;12.70;;
44694;SDS011;32845;59.422;17.930;2024-02-26T19:17:27;25.70;;;9.55;;
44694;SDS011;32845;59.422;17.930;2024-02-26T19:21:58;35.20;;;10.57;;
44694;SDS011;32845;59.422;17.930;2024-02-26T19:26:30;24.77;;;8.95;;
44694;SDS011;32845;59.422;17.930;2024-02-26T19:31:01;50.33;;;10.18;;
44694;SDS011;32845;59.422;17.930;2024-02-26T19:35:32;18.90;;;8.15;;
44694;SDS011;32845;59.422;17.930;2024-02-26T19:40:03;23.83;;;9.23;;
44694;SDS011;32845;59.422;17.930;2024-02-26T19:44:34;36.80;;;9.57;;
44694;SDS011;32845;59.422;17.930;2024-02-26T19:49:05;24.95;;;9.10;;
44694;SDS011;32845;59.422;17.930;2024-02-26T19:53:35;34.45;;;8.93;;
44694;SDS011;32845;59.422;17.930;2024-02-26T19:58:06;26.80;;;8.43;;
44694;SDS011;32845;59.422;17.930;2024-02-26T20:02:36;26.60;;;8.70;;
44694;SDS011;32845;59.422;17.930;2024-02-26T20:07:07;61.97;;;10.90;;
44694;SDS011;32845;59.422;17.930;2024-02-26T20:11:38;36.45;;;11.52;;
44694;SDS011;32845;59.422;17.930;2024-02-26T20:16:08;31.95;;;10.07;;
44694;SDS011;32845;59.422;17.930;2024-02-26T20:20:39;21.52;;;9.85;;
44694;SDS011;32845;59.422;17.930;2024-02-26T20:25:11;35.85;;;10.55;;
44694;SDS011;32845;59.422;17.930;2024-02-26T20:29:42;39.25;;;10.38;;
44694;SDS011;32845;59.422;17.930;2024-02-26T20:34:18;34.22;;;10.38;;
44694;SDS011;32845;59.422;17.930;2024-02-26T20:38:49;28.35;;;11.27;;
44694;SDS011;32845;59.422;17.930;2024-02-26T20:43:20;28.27;;;8.90;;
44694;SDS011;32845;59.422;17.930;2024-02-26T20:47:50;30.05;;;9.70;;
44694;SDS011;32845;59.422;17.930;2024-02-26T20:52:22;27.75;;;8.90;;
44694;SDS011;32845;59.422;17.930;2024-02-26T20:56:53;33.60;;;9.38;;
44694;SDS011;32845;59.422;17.930;2024-02-26T21:01:24;57.13;;;10.30;;
44694;SDS011;32845;59.422;17.930;2024-02-26T21:06:00;36.35;;;8.00;;
44694;SDS011;32845;59.422;17.930;2024-02-26T21:10:31;31.92;;;8.23;;
44694;SDS011;32845;59.422;17.930;2024-02-26T21:15:03;25.88;;;8.30;;
44694;SDS011;32845;59.422;17.930;2024-02-26T21:19:34;22.77;;;7.97;;
44694;SDS011;32845;59.422;17.930;2024-02-26T21:24:06;45.65;;;9.80;;
44694;SDS011;32845;59.422;17.930;2024-02-26T21:28:37;43.10;;;8.75;;
44694;SDS011;32845;59.422;17.930;2024-02-26T21:33:09;54.92;;;9.23;;
44694;SDS011;32845;59.422;17.930;2024-02-26T21:37:39;28.25;;;8.73;;
44694;SDS011;32845;59.422;17.930;2024-02-26T21:42:10;38.35;;;8.35;;
44694;SDS011;32845;59.422;17.930;2024-02-26T21:46:40;39.05;;;8.77;;
44694;SDS011;32845;59.422;17.930;2024-02-26T21:51:14;36.92;;;7.60;;
44694;SDS011;32845;59.422;17.930;2024-02-26T21:55:45;76.97;;;11.15;;
44694;SDS011;32845;59.422;17.930;2024-02-26T22:00:15;33.22;;;7.95;;
44694;SDS011;32845;59.422;17.930;2024-02-26T22:04:51;46.80;;;7.93;;
44694;SDS011;32845;59.422;17.930;2024-02-26T22:09:23;47.80;;;7.88;;
44694;SDS011;32845;59.422;17.930;2024-02-26T22:13:54;34.55;;;8.52;;
44694;SDS011;32845;59.422;17.930;2024-02-26T22:18:25;20.73;;;7.38;;
44694;SDS011;32845;59.422;17.930;2024-02-26T22:22:55;28.40;;;7.63;;
44694;SDS011;32845;59.422;17.930;2024-02-26T22:27:27;41.75;;;7.78;;
44694;SDS011;32845;59.422;17.930;2024-02-26T22:31:57;25.70;;;7.07;;
44694;SDS011;32845;59.422;17.930;2024-02-26T22:36:45;72.05;;;8.93;;
44694;SDS011;32845;59.422;17.930;2024-02-26T22:41:15;62.17;;;7.18;;
44694;SDS011;32845;59.422;17.930;2024-02-26T22:45:46;26.38;;;7.28;;
44694;SDS011;32845;59.422;17.930;2024-02-26T22:50:17;48.22;;;9.63;;
44694;SDS011;32845;59.422;17.930;2024-02-26T22:54:57;89.97;;;9.50;;
44694;SDS011;32845;59.422;17.930;2024-02-26T22:59:28;76.35;;;7.65;;
44694;SDS011;32845;59.422;17.930;2024-02-26T23:04:04;24.77;;;6.88;;
44694;SDS011;32845;59.422;17.930;2024-02-26T23:08:35;56.13;;;8.73;;
44694;SDS011;32845;59.422;17.930;2024-02-26T23:13:11;37.65;;;6.00;;
44694;SDS011;32845;59.422;17.930;2024-02-26T23:17:42;62.00;;;7.35;;
44694;SDS011;32845;59.422;17.930;2024-02-26T23:22:13;57.88;;;7.15;;
44694;SDS011;32845;59.422;17.930;2024-02-26T23:26:48;106.90;;;10.18;;
44694;SDS011;32845;59.422;17.930;2024-02-26T23:31:19;70.85;;;8.30;;
44694;SDS011;32845;59.422;17.930;2024-02-26T23:35:50;63.97;;;7.70;;
44694;SDS011;32845;59.422;17.930;2024-02-26T23:40:21;130.25;;;10.55;;
44694;SDS011;32845;59.422;17.930;2024-02-26T23:45:01;52.67;;;6.97;;
44694;SDS011;32845;59.422;17.930;2024-02-26T23:49:32;48.65;;;7.57;;
44694;SDS011;32845;59.422;17.930;2024-02-26T23:54:03;36.35;;;6.82;;
44694;SDS011;32845;59.422;17.930;2024-02-26T23:58:34;70.97;;;8.32;;
